Flood From: 19-02-2018 16:00 Until: 20-02-2018 16:00 warning for: Flood Level: Yellow info button

Although rather usual in this region, locally or potentially dangerous phenomena are expected. (such as local winds, summer thunderstorms, rising streams or high waves) Be aware and pay attention to the latest weather updates, especially if you carry out activities exposed to weather or close to a stream or shoreline. 


Meteo18 Weather Cam more information Meteo18 Weather Cam


Thunder radar more information blitzortung!


Rain radar more information rain snow radar


Visit our other weather sites:

Template documentation
and downloads

And another site



Weather Underground History page Text

Daily Summary for January 2, 2018 Units:  English    Metric   Both
« Previous Day
Next Day »
Daily Weekly Monthly Yearly Custom
  High: Low: Average:
Temperature: TemperatureC °F 3.8 °F 7 °F
Dew Point: DewpointC °F 2.7 °F 5.9 °F
Humidity: Humidity % 84 % 93 %
Wind Speed: WindSpeedKMH mph 0.0 mph 9.5 mph
Wind Gust: WindSpeedGustKMH mph - -
Wind:- - SW
Pressure: PressurehPa in 1013.1 in -
Precipitation: 2.0 in    
Historical Graphs
 
 
Tabular Data for January 2, 2018
Time Temperature Dew Point Pressure Wind Wind Speed Wind Gust Humidity Rainfall Rate (Hourly)
TemperatureC °F DewpointC °F PressurehPa in Calm     Humidity % HourlyPrecipMM in
00:00 6.6 °F 4.1 °F 1016.5 in West 9.7 mph 16.1 mph 84 % 0.0 in
00:04 6.6 °F 4.3 °F 1016.8 in West 19.5 mph 25.7 mph 85 % 0.0 in
00:10 6.6 °F 4.3 °F 1016.8 in West 14.3 mph 24.1 mph 85 % 0.0 in
00:16 6.4 °F 4.1 °F 1016.8 in West 14.3 mph 19.3 mph 85 % 0.0 in
00:22 6.4 °F 4.2 °F 1017.2 in WSW 24.1 mph 24.1 mph 86 % 0.0 in
00:28 6.3 °F 4.1 °F 1017.2 in WSW 14.3 mph 24.1 mph 86 % 0.0 in
00:34 6.3 °F 4.1 °F 1017.2 in WSW 13.0 mph 20.9 mph 86 % 0.0 in
00:36 6.3 °F 4.1 °F 1017.2 in WSW 7.9 mph 27.4 mph 86 % 0.0 in
00:42 6.3 °F 4.1 °F 1017.2 in West 17.7 mph 20.9 mph 86 % 0.0 in
00:48 6.3 °F 4.1 °F 1017.5 in West 13.0 mph 19.3 mph 86 % 0.0 in
00:54 6.1 °F 4.1 °F 1017.5 in West 14.3 mph 19.3 mph 87 % 0.0 in
01:00 6.1 °F 4.1 °F 1017.2 in West 13.0 mph 27.4 mph 87 % 0.0 in
01:06 6.1 °F 4.1 °F 1017.5 in West 17.7 mph 20.9 mph 87 % 0.0 in
01:12 6.1 °F 4.1 °F 1017.5 in West 14.3 mph 19.3 mph 87 % 0.0 in
01:18 6.0 °F 4.0 °F 1017.5 in West 14.3 mph 17.7 mph 87 % 0.0 in
01:24 6.0 °F 4.0 °F 1017.5 in WNW 9.7 mph 16.1 mph 87 % 0.0 in
01:32 6.0 °F 4.0 °F 1017.8 in West 17.7 mph 27.4 mph 87 % 0.0 in
01:38 5.9 °F 3.9 °F 1017.8 in WSW 16.3 mph 20.9 mph 87 % 0.0 in
01:44 5.8 °F 3.8 °F 1017.5 in West 11.1 mph 20.9 mph 87 % 0.0 in
01:50 5.7 °F 3.9 °F 1017.8 in West 9.7 mph 17.7 mph 88 % 0.0 in
01:58 5.7 °F 3.9 °F 1017.8 in West 17.7 mph 20.9 mph 88 % 0.0 in
02:04 5.6 °F 3.8 °F 1017.8 in WSW 14.3 mph 17.7 mph 88 % 0.0 in
02:08 5.5 °F 3.7 °F 1017.8 in WSW 9.7 mph 20.9 mph 88 % 0.0 in
02:14 5.5 °F 3.7 °F 1017.8 in WSW 13.0 mph 17.7 mph 88 % 0.0 in
02:22 5.4 °F 3.6 °F 1017.8 in SW 4.7 mph 16.1 mph 88 % 0.0 in
02:28 5.3 °F 3.6 °F 1018.2 in West 11.1 mph 20.9 mph 89 % 0.0 in
02:34 5.3 °F 3.6 °F 1018.2 in West 11.1 mph 16.1 mph 89 % 0.0 in
02:40 5.3 °F 3.6 °F 1018.2 in West 13.0 mph 19.3 mph 89 % 0.0 in
02:46 5.3 °F 3.6 °F 1018.5 in WSW 9.7 mph 19.3 mph 89 % 0.0 in
02:52 5.3 °F 3.6 °F 1018.5 in WSW 17.7 mph 20.9 mph 89 % 0.0 in
02:58 5.3 °F 3.5 °F 1018.5 in WSW 11.1 mph 16.1 mph 88 % 0.0 in
03:04 5.2 °F 3.5 °F 1018.5 in WSW 9.7 mph 19.3 mph 89 % 0.0 in
03:12 5.2 °F 3.5 °F 1018.8 in WSW 11.1 mph 16.1 mph 89 % 0.0 in
03:18 5.2 °F 3.5 °F 1018.8 in West 6.4 mph 16.1 mph 89 % 0.0 in
03:32 5.2 °F 3.5 °F 1018.8 in WSW 13.0 mph 14.5 mph 89 % 0.0 in
03:36 5.2 °F 3.5 °F 1018.8 in WSW 9.7 mph 17.7 mph 89 % 0.0 in
03:44 5.1 °F 3.4 °F 1018.8 in SW 9.7 mph 16.1 mph 89 % 0.0 in
03:50 5.1 °F 3.6 °F 1018.8 in WSW 6.4 mph 14.5 mph 90 % 0.0 in
03:56 4.9 °F 3.2 °F 1018.8 in SW 11.1 mph 17.7 mph 89 % 0.0 in
04:02 4.9 °F 3.4 °F 1018.8 in WSW 11.1 mph 19.3 mph 90 % 0.0 in
04:06 4.9 °F 3.4 °F 1018.8 in WSW 7.9 mph 17.7 mph 90 % 0.0 in
04:14 4.9 °F 3.4 °F 1018.8 in WSW 13.0 mph 19.3 mph 90 % 0.0 in
04:20 4.8 °F 3.3 °F 1018.8 in SW 13.0 mph 17.7 mph 90 % 0.0 in
04:26 4.8 °F 3.3 °F 1018.8 in WSW 6.4 mph 14.5 mph 90 % 0.0 in
04:38 4.8 °F 3.3 °F 1018.8 in West 16.3 mph 17.7 mph 90 % 0.0 in
04:44 4.7 °F 3.2 °F 1018.8 in WSW 14.3 mph 14.5 mph 90 % 0.0 in
04:50 4.7 °F 3.2 °F 1019.2 in WSW 11.1 mph 19.3 mph 90 % 0.0 in
04:56 4.7 °F 3.2 °F 1018.8 in WSW 11.1 mph 14.5 mph 90 % 0.0 in
05:02 4.7 °F 3.2 °F 1019.2 in SW 6.4 mph 14.5 mph 90 % 0.0 in
05:09 4.7 °F 3.4 °F 1019.2 in WSW 6.4 mph 14.5 mph 91 % 0.0 in
05:15 4.7 °F 3.4 °F 1019.2 in WSW 7.9 mph 9.7 mph 91 % 0.0 in
05:21 4.7 °F 3.4 °F 1019.2 in WSW 4.7 mph 4.8 mph 91 % 0.0 in
05:33 4.7 °F 3.2 °F 1019.2 in SW 3.2 mph 4.8 mph 90 % 0.0 in
05:39 4.6 °F 3.1 °F 1019.2 in SW 4.7 mph 6.4 mph 90 % 0.0 in
05:45 4.5 °F 3.2 °F 1019.5 in SW 6.4 mph 9.7 mph 91 % 0.0 in
05:49 4.5 °F 3.2 °F 1019.5 in WSW 1.4 mph 8.0 mph 91 % 0.0 in
05:55 4.4 °F 3.1 °F 1019.5 in WSW 6.4 mph 8.0 mph 91 % 0.0 in
06:01 4.5 °F 3.2 °F 1019.5 in SW 3.2 mph 11.3 mph 91 % 0.0 in
06:03 4.5 °F 3.2 °F 1019.2 in WSW 7.9 mph 11.3 mph 91 % 0.0 in
06:09 4.6 °F 3.3 °F 1019.5 in WSW 7.9 mph 9.7 mph 91 % 0.0 in
06:15 4.6 °F 3.3 °F 1019.5 in SSW 1.4 mph 6.4 mph 91 % 0.0 in
06:21 4.6 °F 3.3 °F 1019.5 in WSW 3.2 mph 11.3 mph 91 % 0.0 in
06:27 4.7 °F 3.4 °F 1019.5 in Calm   8.0 mph 91 % 0.0 in
06:33 4.8 °F 3.3 °F 1019.5 in WSW 7.9 mph 9.7 mph 90 % 0.0 in
06:39 4.8 °F 3.3 °F 1019.5 in SW 4.7 mph 12.9 mph 90 % 0.0 in
06:45 4.8 °F 3.3 °F 1019.5 in WSW 9.7 mph 14.5 mph 90 % 0.0 in
06:51 4.7 °F 3.2 °F 1019.5 in SW 9.7 mph 11.3 mph 90 % 0.0 in
06:57 4.6 °F 3.1 °F 1019.2 in WSW 6.4 mph 6.4 mph 90 % 0.0 in
07:01 4.6 °F 3.3 °F 1019.2 in SW 3.2 mph 6.4 mph 91 % 0.0 in
07:03 4.6 °F 3.3 °F 1019.2 in SSW 3.2 mph 8.0 mph 91 % 0.0 in
07:09 4.6 °F 3.3 °F 1018.8 in SW 6.4 mph 11.3 mph 91 % 0.0 in
07:15 4.5 °F 3.2 °F 1019.2 in SW 1.4 mph 8.0 mph 91 % 0.0 in
07:21 4.5 °F 3.2 °F 1019.2 in WSW 4.7 mph 8.0 mph 91 % 0.0 in
07:27 4.4 °F 3.1 °F 1019.5 in WSW 3.2 mph 12.9 mph 91 % 0.0 in
07:33 4.5 °F 3.2 °F 1019.5 in WSW 7.9 mph 11.3 mph 91 % 0.0 in
07:35 4.5 °F 3.2 °F 1019.5 in SW 6.4 mph 12.9 mph 91 % 0.0 in
07:41 4.6 °F 3.3 °F 1019.5 in WSW 7.9 mph 12.9 mph 91 % 0.0 in
07:45 4.5 °F 3.2 °F 1019.5 in SSW 3.2 mph 8.0 mph 91 % 0.0 in
07:47 4.4 °F 3.1 °F 1019.5 in SSW 3.2 mph 8.0 mph 91 % 0.0 in
07:53 4.3 °F 3.1 °F 1019.5 in SSW 3.2 mph 8.0 mph 92 % 0.0 in
07:59 4.2 °F 3.0 °F 1019.2 in SSW 3.2 mph 6.4 mph 92 % 0.0 in
08:07 4.0 °F 2.8 °F 1018.8 in SSE 1.4 mph 4.8 mph 92 % 0.0 in
08:13 3.9 °F 2.7 °F 1019.2 in Calm   3.2 mph 92 % 0.0 in
08:25 3.8 °F 2.8 °F 1020.2 in SW 1.4 mph 4.8 mph 93 % 0.0 in
08:29 3.8 °F 2.8 °F 1020.2 in WSW 3.2 mph 6.4 mph 93 % 0.0 in
08:35 4.1 °F 3.2 °F 1020.5 in SW 3.2 mph 4.8 mph 94 % 0.0 in
08:41 4.3 °F 3.3 °F 1020.5 in SW 1.4 mph 9.7 mph 93 % 0.0 in
08:47 4.4 °F 3.2 °F 1020.5 in Calm   3.2 mph 92 % 0.0 in
08:53 4.4 °F 3.2 °F 1020.5 in SSE 1.4 mph 4.8 mph 92 % 0.0 in
08:59 4.3 °F 3.1 °F 1020.9 in SSE 1.4 mph 3.2 mph 92 % 0.0 in
09:05 4.3 °F 3.1 °F 1020.5 in South 3.2 mph 4.8 mph 92 % 0.0 in
09:09 4.3 °F 3.1 °F 1020.5 in Calm   3.2 mph 92 % 0.0 in
09:15 4.2 °F 3.0 °F 1020.5 in Calm   3.2 mph 92 % 0.0 in
09:17 4.2 °F 3.0 °F 1020.9 in SE 1.4 mph 1.6 mph 92 % 0.0 in
09:23 4.2 °F 3.0 °F 1020.9 in ESE 3.2 mph 3.2 mph 92 % 0.0 in
09:29 4.3 °F 3.3 °F 1020.9 in SE 1.4 mph 6.4 mph 93 % 0.0 in
09:35 4.4 °F 3.2 °F 1020.9 in SSE 1.4 mph 6.4 mph 92 % 0.0 in
09:38 4.4 °F 3.4 °F 1020.9 in SE 4.7 mph 6.4 mph 93 % 0.0 in
09:41 4.6 °F 3.4 °F 1020.9 in ESE 3.2 mph 4.8 mph 92 % 0.0 in
09:47 4.6 °F 3.4 °F 1020.9 in SE 4.7 mph 4.8 mph 92 % 0.0 in
09:54 4.7 °F 3.5 °F 1020.5 in SE 1.4 mph 9.7 mph 92 % 0.0 in
09:59 4.7 °F 3.5 °F 1020.5 in SE 3.2 mph 4.8 mph 92 % 0.0 in
10:05 4.7 °F 3.5 °F 1020.5 in SSE 1.4 mph 4.8 mph 92 % 0.0 in
10:11 4.7 °F 3.5 °F 1020.2 in SSE 1.4 mph 4.8 mph 92 % 0.0 in
10:18 4.7 °F 3.5 °F 1020.2 in SSE 1.4 mph 4.8 mph 92 % 0.0 in
10:24 4.7 °F 3.5 °F 1020.2 in Calm   1.6 mph 92 % 0.0 in
10:30 4.7 °F 3.5 °F 1019.9 in Calm   1.6 mph 92 % 0.0 in
10:36 4.7 °F 3.5 °F 1019.9 in Calm   3.2 mph 92 % 0.0 in
10:42 4.8 °F 3.8 °F 1019.9 in South 3.2 mph 6.4 mph 93 % 0.0 in
10:48 4.9 °F 3.9 °F 1019.9 in South 1.4 mph 4.8 mph 93 % 0.0 in
10:54 5.1 °F 4.1 °F 1020.2 in SSW 4.7 mph 8.0 mph 93 % 0.0 in
11:00 5.2 °F 4.2 °F 1020.2 in SW 9.7 mph 9.7 mph 93 % 0.0 in
11:06 5.3 °F 4.4 °F 1020.2 in SSW 3.2 mph 9.7 mph 94 % 0.0 in
11:12 5.6 °F 4.7 °F 1020.2 in SSW 4.7 mph 9.7 mph 94 % 0.0 in
11:18 5.7 °F 4.8 °F 1019.9 in SSW 3.2 mph 6.4 mph 94 % 0.0 in
11:24 5.8 °F 4.9 °F 1019.5 in SSW 4.7 mph 8.0 mph 94 % 0.0 in
11:30 5.8 °F 4.9 °F 1019.5 in SSW 7.9 mph 8.0 mph 94 % 0.0 in
11:36 5.9 °F 5.0 °F 1019.5 in SSW 3.2 mph 6.4 mph 94 % 0.0 in
11:42 6.1 °F 5.2 °F 1019.5 in SW 6.4 mph 6.4 mph 94 % 0.0 in
11:48 6.4 °F 5.7 °F 1019.5 in WSW 1.4 mph 14.5 mph 95 % 0.0 in
11:54 6.9 °F 6.0 °F 1019.5 in SW 7.9 mph 16.1 mph 94 % 0.0 in
12:02 7.2 °F 6.1 °F 1019.2 in SW 6.4 mph 14.5 mph 93 % 0.0 in
12:08 7.3 °F 6.2 °F 1018.8 in SW 13.0 mph 19.3 mph 93 % 0.0 in
12:14 7.4 °F 6.3 °F 1018.5 in SW 20.9 mph 22.5 mph 93 % 0.0 in
12:20 7.6 °F 6.5 °F 1018.5 in SW 19.5 mph 25.7 mph 93 % 0.0 in
12:30 7.7 °F 6.5 °F 1018.2 in SSW 17.7 mph 22.5 mph 92 % 0.0 in
12:36 7.8 °F 6.7 °F 1018.2 in SW 19.5 mph 24.1 mph 93 % 0.0 in
12:42 7.9 °F 6.7 °F 1018.5 in WSW 9.7 mph 20.9 mph 92 % 0.0 in
12:50 7.9 °F 6.7 °F 1018.2 in SW 17.7 mph 22.5 mph 92 % 0.0 in
12:56 8.0 °F 6.8 °F 1017.8 in SW 4.7 mph 16.1 mph 92 % 0.0 in
13:02 8.1 °F 6.9 °F 1018.2 in SW 17.7 mph 22.5 mph 92 % 0.0 in
13:08 8.2 °F 7.0 °F 1017.8 in SW 13.0 mph 22.5 mph 92 % 0.0 in
13:14 8.2 °F 6.8 °F 1017.8 in SW 16.3 mph 20.9 mph 91 % 0.0 in
13:20 8.3 °F 6.9 °F 1017.5 in SSW 22.7 mph 24.1 mph 91 % 0.0 in
13:26 8.3 °F 6.8 °F 1017.5 in SW 13.0 mph 25.7 mph 90 % 0.0 in
13:36 8.3 °F 6.8 °F 1017.8 in SSW 9.7 mph 24.1 mph 90 % 0.0 in
13:42 8.4 °F 6.7 °F 1017.8 in SW 9.7 mph 16.1 mph 89 % 0.0 in
13:44 8.4 °F 6.7 °F 1017.8 in SSW 9.7 mph 17.7 mph 89 % 0.0 in
13:50 8.4 °F 6.7 °F 1017.5 in SW 19.5 mph 27.4 mph 89 % 0.0 in
13:56 8.3 °F 6.8 °F 1017.5 in SSW 16.3 mph 22.5 mph 90 % 0.0 in
14:02 8.0 °F 6.6 °F 1017.5 in SW 19.5 mph 24.1 mph 91 % 0.0 in
14:08 7.8 °F 6.7 °F 1017.5 in SSW 11.1 mph 16.1 mph 93 % 0.0 in
14:14 7.8 °F 6.9 °F 1017.2 in South 13.0 mph 17.7 mph 94 % 0.0 in
14:18 7.7 °F 6.8 °F 1017.2 in SSW 11.1 mph 17.7 mph 94 % 0.0 in
14:24 7.7 °F 6.9 °F 1017.5 in SW 13.0 mph 13.0 mph 95 % 0.0 in
14:30 7.6 °F 6.9 °F 1017.2 in SSW 4.7 mph 16.1 mph 95 % 0.0 in
14:36 7.6 °F 6.9 °F 1016.8 in SSW 13.0 mph 17.7 mph 95 % 0.0 in
14:42 7.5 °F 6.9 °F 1016.8 in SW 7.9 mph 16.1 mph 96 % 0.0 in
14:54 7.5 °F 6.9 °F 1016.1 in South 4.7 mph 11.3 mph 96 % 0.0 in
14:58 7.5 °F 6.9 °F 1016.1 in South 7.9 mph 9.7 mph 96 % 0.0 in
15:04 7.5 °F 6.9 °F 1016.1 in SSE 3.2 mph 11.3 mph 96 % 0.3 in
15:08 7.5 °F 6.9 °F 1016.1 in SSE 7.9 mph 16.1 mph 96 % 0.3 in
15:14 7.5 °F 6.9 °F 1015.8 in SSE 11.1 mph 16.1 mph 96 % 0.3 in
15:20 7.5 °F 6.9 °F 1015.8 in SSW 11.1 mph 14.5 mph 96 % 0.3 in
15:26 7.5 °F 6.9 °F 1016.1 in SSW 7.9 mph 16.1 mph 96 % 0.3 in
15:32 7.5 °F 6.9 °F 1016.1 in SSW 3.2 mph 11.3 mph 96 % 0.3 in
15:40 7.6 °F 7.0 °F 1016.1 in SSE 3.2 mph 9.7 mph 96 % 0.3 in
15:46 7.6 °F 7.0 °F 1016.1 in SSW 7.9 mph 8.0 mph 96 % 0.3 in
15:50 7.5 °F 6.9 °F 1015.8 in SE 6.4 mph 14.5 mph 96 % 0.3 in
15:56 7.5 °F 6.9 °F 1015.8 in SSE 3.2 mph 11.3 mph 96 % 0.3 in
16:02 7.5 °F 6.9 °F 1015.8 in SSE 6.4 mph 12.9 mph 96 % 0.0 in
16:08 7.5 °F 6.9 °F 1015.8 in SSE 6.4 mph 11.3 mph 96 % 0.0 in
16:14 7.5 °F 6.9 °F 1015.8 in South 9.7 mph 11.3 mph 96 % 0.0 in
16:20 7.4 °F 6.8 °F 1015.8 in SSW 9.7 mph 16.1 mph 96 % 0.0 in
16:26 7.4 °F 6.8 °F 1015.8 in SSW 11.1 mph 14.5 mph 96 % 0.0 in
16:32 7.4 °F 6.8 °F 1015.8 in South 13.0 mph 17.7 mph 96 % 0.3 in
16:38 7.4 °F 6.8 °F 1015.8 in SSW 7.9 mph 11.3 mph 96 % 0.3 in
16:44 7.4 °F 6.8 °F 1015.5 in SE 7.9 mph 12.9 mph 96 % 0.3 in
16:50 7.4 °F 6.8 °F 1015.5 in SSW 4.7 mph 12.9 mph 96 % 0.3 in
16:56 7.4 °F 6.8 °F 1015.5 in SSW 9.7 mph 14.5 mph 96 % 0.5 in
17:02 7.4 °F 6.8 °F 1015.1 in SSW 6.4 mph 12.9 mph 96 % 0.5 in
17:08 7.4 °F 7.0 °F 1015.1 in South 7.9 mph 14.5 mph 97 % 0.5 in
17:14 7.4 °F 7.0 °F 1015.5 in SSW 6.4 mph 14.5 mph 97 % 0.5 in
17:20 7.4 °F 7.0 °F 1015.5 in SSW 9.7 mph 12.9 mph 97 % 0.5 in
17:26 7.5 °F 7.1 °F 1015.8 in SW 11.1 mph 16.1 mph 97 % 0.5 in
17:32 7.5 °F 7.1 °F 1015.8 in SSW 7.9 mph 14.5 mph 97 % 0.5 in
17:38 7.6 °F 7.2 °F 1015.8 in SSW 13.0 mph 17.7 mph 97 % 0.5 in
17:44 7.6 °F 7.2 °F 1015.8 in SW 9.7 mph 16.1 mph 97 % 0.5 in
17:50 7.6 °F 7.2 °F 1015.8 in SSW 7.9 mph 14.5 mph 97 % 0.5 in
17:56 7.6 °F 7.2 °F 1015.8 in SSW 7.9 mph 12.9 mph 97 % 0.5 in
17:59 7.6 °F 7.2 °F 1015.8 in South 6.4 mph 11.3 mph 97 % 0.5 in
18:04 7.7 °F 7.3 °F 1015.8 in SW 13.0 mph 16.1 mph 97 % 0.0 in
18:10 7.8 °F 7.4 °F 1015.8 in South 7.9 mph 16.1 mph 97 % 0.0 in
18:16 7.8 °F 7.4 °F 1015.5 in SW 7.9 mph 11.3 mph 97 % 0.0 in
18:22 7.8 °F 7.4 °F 1015.5 in SSW 9.7 mph 11.3 mph 97 % 0.0 in
18:28 7.8 °F 7.4 °F 1015.5 in SSW 6.4 mph 9.7 mph 97 % 0.3 in
18:36 7.9 °F 7.5 °F 1015.1 in SW 11.1 mph 11.3 mph 97 % 0.3 in
18:44 8.0 °F 7.6 °F 1015.1 in SW 7.9 mph 11.3 mph 97 % 0.3 in
18:50 8.1 °F 7.7 °F 1015.1 in South 3.2 mph 11.3 mph 97 % 0.3 in
18:56 8.1 °F 7.7 °F 1015.1 in SSW 7.9 mph 11.3 mph 97 % 0.3 in
19:02 8.2 °F 7.8 °F 1014.8 in SSW 4.7 mph 9.7 mph 97 % 0.3 in
19:08 8.2 °F 7.8 °F 1015.1 in SW 11.1 mph 14.5 mph 97 % 0.3 in
19:14 8.2 °F 7.8 °F 1015.1 in SSW 6.4 mph 12.9 mph 97 % 0.3 in
19:20 8.2 °F 7.8 °F 1015.1 in SSW 9.7 mph 12.9 mph 97 % 0.3 in
19:26 8.3 °F 7.9 °F 1015.1 in SW 6.4 mph 9.7 mph 97 % 0.0 in
19:32 8.4 °F 8.1 °F 1015.1 in SSW 6.4 mph 12.9 mph 98 % 0.3 in
19:38 8.5 °F 8.2 °F 1014.8 in SW 6.4 mph 11.3 mph 98 % 0.3 in
19:44 8.6 °F 8.3 °F 1015.1 in SW 7.9 mph 8.0 mph 98 % 0.3 in
19:50 8.6 °F 8.3 °F 1015.1 in SW 4.7 mph 8.0 mph 98 % 0.3 in
19:54 8.6 °F 8.3 °F 1015.1 in SSW 4.7 mph 8.0 mph 98 % 0.3 in
20:00 8.8 °F 8.5 °F 1015.1 in SW 4.7 mph 8.0 mph 98 % 0.3 in
20:06 9.1 °F 8.8 °F 1014.8 in SW 6.4 mph 11.3 mph 98 % 0.3 in
20:12 9.5 °F 9.2 °F 1014.8 in SW 9.7 mph 12.9 mph 98 % 0.3 in
20:18 9.8 °F 9.5 °F 1014.4 in SSW 11.1 mph 19.3 mph 98 % 0.3 in
20:24 10.1 °F 9.8 °F 1014.8 in SW 14.3 mph 19.3 mph 98 % 0.3 in
20:30 10.4 °F 10.1 °F 1014.8 in SW 4.7 mph 19.3 mph 98 % 0.0 in
20:36 10.7 °F 10.4 °F 1014.8 in SSW 16.3 mph 22.5 mph 98 % 0.0 in
20:42 10.8 °F 10.5 °F 1014.8 in SW 7.9 mph 19.3 mph 98 % 0.3 in
20:48 11.0 °F 10.7 °F 1014.8 in SW 7.9 mph 20.9 mph 98 % 0.3 in
20:54 11.2 °F 10.9 °F 1014.4 in WSW 9.7 mph 24.1 mph 98 % 0.3 in
21:03 11.3 °F 11.0 °F 1014.8 in West 20.9 mph 33.8 mph 98 % 0.3 in
21:09 11.4 °F 11.1 °F 1014.8 in WSW 11.1 mph 25.7 mph 98 % 0.3 in
21:15 11.4 °F 11.1 °F 1014.8 in West 27.4 mph 38.6 mph 98 % 0.3 in
21:21 11.6 °F 11.1 °F 1014.8 in WSW 16.3 mph 24.1 mph 97 % 0.3 in
21:27 11.6 °F 11.1 °F 1014.8 in West 19.5 mph 25.7 mph 97 % 0.3 in
21:33 11.6 °F 11.0 °F 1014.4 in West 11.1 mph 22.5 mph 96 % 0.3 in
21:39 11.6 °F 11.0 °F 1014.4 in WSW 19.5 mph 29.0 mph 96 % 0.3 in
21:43 11.6 °F 11.0 °F 1014.4 in WSW 22.7 mph 32.2 mph 96 % 0.0 in
21:49 11.7 °F 11.1 °F 1014.1 in WSW 14.3 mph 27.4 mph 96 % 0.0 in
21:53 11.7 °F 11.1 °F 1014.4 in SW 14.3 mph 17.7 mph 96 % 0.0 in
21:59 11.7 °F 11.1 °F 1014.4 in SW 9.7 mph 25.7 mph 96 % 0.0 in
22:05 11.7 °F 11.1 °F 1014.4 in West 14.3 mph 20.9 mph 96 % 0.0 in
22:11 11.7 °F 11.1 °F 1014.4 in WSW 19.5 mph 29.0 mph 96 % 0.0 in
22:19 11.6 °F 11.0 °F 1014.4 in SW 7.9 mph 24.1 mph 96 % 0.0 in
22:25 11.6 °F 11.0 °F 1014.4 in WSW 28.8 mph 33.8 mph 96 % 0.3 in
22:29 11.6 °F 11.0 °F 1014.4 in WSW 30.6 mph 30.6 mph 96 % 0.3 in
22:35 11.6 °F 11.0 °F 1014.4 in West 14.3 mph 35.4 mph 96 % 0.3 in
22:41 11.6 °F 11.0 °F 1014.4 in West 13.0 mph 37.0 mph 96 % 0.5 in
22:47 11.7 °F 10.9 °F 1014.1 in WSW 16.3 mph 29.0 mph 95 % 0.5 in
22:53 11.7 °F 10.9 °F 1014.1 in SSW 25.9 mph 30.6 mph 95 % 0.5 in
22:59 11.7 °F 10.8 °F 1014.1 in West 17.7 mph 24.1 mph 94 % 0.5 in
23:07 11.7 °F 10.8 °F 1013.8 in SW 16.3 mph 35.4 mph 94 % 0.5 in
23:13 11.6 °F 10.8 °F 1014.1 in WSW 32.0 mph 32.2 mph 95 % 0.5 in
23:21 11.6 °F 10.8 °F 1013.8 in SW 20.9 mph 30.6 mph 95 % 0.5 in
23:27 11.6 °F 10.8 °F 1013.8 in SW 19.5 mph 32.2 mph 95 % 0.3 in
23:33 11.6 °F 10.8 °F 1013.8 in SW 13.0 mph 20.9 mph 95 % 0.3 in
23:39 11.6 °F 10.8 °F 1013.8 in WSW 17.7 mph 27.4 mph 95 % 0.3 in
23:45 11.6 °F 10.8 °F 1013.4 in West 14.3 mph 33.8 mph 95 % 0.0 in
23:51 11.6 °F 10.8 °F 1013.4 in SW 22.7 mph 25.7 mph 95 % 0.0 in
23:57 11.6 °F 10.8 °F 1013.1 in WNW 17.7 mph 22.5 mph 95 % 0.0 in
Meteo18
Compliments of Weather Underground - 4 mb

Script developed by  Jim McMurry - jmcmurry@mwt.net Adapted for the template by  Wim van der Kuil - Leuven-Template.eu

You find our weather info also at:

European Weather Network

Weather Underground

Equipment we use:

Weather-station
Davis Vue

Weather-program
Meteobridge

Weather-server
Raspberry PI 2 B+

Provider
1 and 1

Davis Vue

Meteobridge

Raspberry PI 2 B+

1 and 1